Monday, December 18, 2017, 5:11 PM EST
Back to Local

KLNS, Lancaster Airport

Location: Lititz, PA, United States Lat: 40.117
Local Time: 5:11 PM EST (22:11 GMT) Lon: -76.3
Time Zone: US/Eastern Elev: 403 ft

Show me the last for .
Show Coded

Time T Td Feel RH Dir Speed Gust Alt SLP Vis Weather Sky Remarks
2017-12-18 16:53 45 36 44 70 210° 3 - 29.98 29.99 8 OVC035 None
2017-12-18 15:53 46 36 43 67 270° 6 - 30.00 30.00 7 OVC032 None
2017-12-18 14:53 46 35 42 65 260° 8 - 29.98 29.99 8 BKN045 None
2017-12-18 13:53 46 35 42 65 280° 8 - 29.99 30.00 7 SCT049 None
2017-12-18 12:53 44 34 41 67 290° 6 - 30.01 30.02 6 HZ OVC050 6-hr Min Temp (1pm): 33.1°F
6-hr Max Temp (1pm): 44.1°F
2017-12-18 11:53 43 34 41 70 240° 3 - 30.05 30.05 6 HZ OVC055 None
2017-12-18 10:53 42 34 - 72 - Calm - 30.09 30.10 6 HZ CLR None
2017-12-18 09:53 39 33 - 79 - Calm - 30.12 30.12 5 HZ SCT050 BKN060 None
2017-12-18 08:53 36 32 - 85 - Calm - 30.11 30.12 5 BR FEW050 OVC070 None
2017-12-18 07:53 34 31 30 88 270° 5 - 30.12 30.13 5 BR BKN055 OVC070 None
2017-12-18 06:53 33 31 - 91 - Calm - 30.11 30.12 6 BR BKN075 6-hr Min Temp (7am): 33.1°F
6-hr Max Temp (7am): 36.0°F
2017-12-18 05:53 33 31 29 91 90° 5 - 30.10 30.11 7 OVC085 None
2017-12-18 04:53 35 32 - 88 - Calm - 30.12 30.13 7 OVC060 None
2017-12-18 03:53 36 31 32 81 40° 5 - 30.13 30.14 7 OVC065 None
2017-12-18 02:53 35 31 31 84 40° 5 - 30.13 30.14 8 OVC070 None
2017-12-18 01:53 35 31 32 84 40° 3 - 30.13 30.14 7 OVC075 None
2017-12-18 00:53 36 31 - 81 - Calm - 30.14 30.15 7 OVC080 6-hr Min Temp (1am): 35.1°F
6-hr Max Temp (1am): 37.0°F
2017-12-17 23:53 35 31 32 84 130° 3 - 30.14 30.15 7 OVC090 24-hr Min Temp (12am): 26.1°F
24-hr Max Temp (12am): 44.1°F
2017-12-17 22:53 36 31 32 81 80° 5 - 30.15 30.16 7 OVC090 None
2017-12-17 21:53 36 31 32 81 80° 5 - 30.18 30.19 7 SCT055 BKN075 OVC090 None
2017-12-17 20:53 36 31 33 81 120° 3 - 30.19 30.20 7 OVC055 None
2017-12-17 19:53 36 31 32 81 50° 5 - 30.20 30.21 7 SCT120 None
2017-12-17 18:53 36 31 32 81 80° 5 - 30.21 30.22 8 BKN110 6-hr Min Temp (7pm): 35.1°F
6-hr Max Temp (7pm): 44.1°F
2017-12-17 17:53 37 31 - 78 - Calm - 30.22 30.23 7 FEW120 None

Support USWX by starting your Amazon purchase here.